sensor_id;sensor_type;location;lat;lon;timestamp;temperature;humidity
7530;DHT22;3806;52.270;10.544;2024-02-26T00:00:33;4.30;99.90
7530;DHT22;3806;52.270;10.544;2024-02-26T00:03:00;4.30;99.90
7530;DHT22;3806;52.270;10.544;2024-02-26T00:05:26;4.20;99.90
7530;DHT22;3806;52.270;10.544;2024-02-26T00:07:51;4.20;99.90
7530;DHT22;3806;52.270;10.544;2024-02-26T00:10:17;4.20;99.90
7530;DHT22;3806;52.270;10.544;2024-02-26T00:12:43;4.20;99.90
7530;DHT22;3806;52.270;10.544;2024-02-26T00:15:10;4.10;99.90
7530;DHT22;3806;52.270;10.544;2024-02-26T00:17:36;4.10;99.90
7530;DHT22;3806;52.270;10.544;2024-02-26T00:20:03;4.10;99.90
7530;DHT22;3806;52.270;10.544;2024-02-26T00:22:35;4.10;99.90
7530;DHT22;3806;52.270;10.544;2024-02-26T00:25:01;4.10;99.90
7530;DHT22;3806;52.270;10.544;2024-02-26T00:27:26;4.10;99.90
7530;DHT22;3806;52.270;10.544;2024-02-26T00:29:52;4.00;99.90
7530;DHT22;3806;52.270;10.544;2024-02-26T00:32:17;4.00;99.90
7530;DHT22;3806;52.270;10.544;2024-02-26T00:34:43;4.00;99.90
7530;DHT22;3806;52.270;10.544;2024-02-26T00:37:09;4.00;99.90
7530;DHT22;3806;52.270;10.544;2024-02-26T00:39:34;4.00;99.90
7530;DHT22;3806;52.270;10.544;2024-02-26T00:41:59;4.00;99.90
7530;DHT22;3806;52.270;10.544;2024-02-26T00:44:25;4.00;99.90
7530;DHT22;3806;52.270;10.544;2024-02-26T00:46:50;3.90;99.90
7530;DHT22;3806;52.270;10.544;2024-02-26T00:49:16;3.90;99.90
7530;DHT22;3806;52.270;10.544;2024-02-26T00:51:41;3.90;99.90
7530;DHT22;3806;52.270;10.544;2024-02-26T00:54:07;3.90;99.90
7530;DHT22;3806;52.270;10.544;2024-02-26T00:56:32;3.90;99.90
7530;DHT22;3806;52.270;10.544;2024-02-26T00:58:58;4.00;99.90
7530;DHT22;3806;52.270;10.544;2024-02-26T01:01:23;4.00;99.90
7530;DHT22;3806;52.270;10.544;2024-02-26T01:03:49;4.00;99.90
7530;DHT22;3806;52.270;10.544;2024-02-26T01:06:14;4.00;99.90
7530;DHT22;3806;52.270;10.544;2024-02-26T01:08:40;4.00;99.90
7530;DHT22;3806;52.270;10.544;2024-02-26T01:11:05;3.90;99.90
7530;DHT22;3806;52.270;10.544;2024-02-26T01:13:31;3.90;99.90
7530;DHT22;3806;52.270;10.544;2024-02-26T01:15:56;3.80;99.90
7530;DHT22;3806;52.270;10.544;2024-02-26T01:18:22;3.80;99.90
7530;DHT22;3806;52.270;10.544;2024-02-26T01:20:48;3.70;99.90
7530;DHT22;3806;52.270;10.544;2024-02-26T01:23:14;3.70;99.90
7530;DHT22;3806;52.270;10.544;2024-02-26T01:25:39;3.80;99.90
7530;DHT22;3806;52.270;10.544;2024-02-26T01:28:05;3.80;99.90
7530;DHT22;3806;52.270;10.544;2024-02-26T01:30:31;3.80;99.90
7530;DHT22;3806;52.270;10.544;2024-02-26T01:32:56;3.90;99.90
7530;DHT22;3806;52.270;10.544;2024-02-26T01:35:22;3.90;99.90
7530;DHT22;3806;52.270;10.544;2024-02-26T01:37:48;3.80;99.90
7530;DHT22;3806;52.270;10.544;2024-02-26T01:40:13;3.80;99.90
7530;DHT22;3806;52.270;10.544;2024-02-26T01:42:43;3.70;99.90
7530;DHT22;3806;52.270;10.544;2024-02-26T01:45:14;3.70;99.90
7530;DHT22;3806;52.270;10.544;2024-02-26T01:47:41;3.60;99.90
7530;DHT22;3806;52.270;10.544;2024-02-26T01:50:07;3.60;99.90
7530;DHT22;3806;52.270;10.544;2024-02-26T01:52:33;3.70;99.90
7530;DHT22;3806;52.270;10.544;2024-02-26T01:54:59;3.70;99.90
7530;DHT22;3806;52.270;10.544;2024-02-26T01:57:27;3.70;99.90
7530;DHT22;3806;52.270;10.544;2024-02-26T01:59:53;3.70;99.90
7530;DHT22;3806;52.270;10.544;2024-02-26T02:02:18;3.60;99.90
7530;DHT22;3806;52.270;10.544;2024-02-26T02:04:44;3.60;99.90
7530;DHT22;3806;52.270;10.544;2024-02-26T02:07:10;3.60;99.90
7530;DHT22;3806;52.270;10.544;2024-02-26T02:09:36;3.60;99.90
7530;DHT22;3806;52.270;10.544;2024-02-26T02:12:02;3.60;99.90
7530;DHT22;3806;52.270;10.544;2024-02-26T02:14:27;3.60;99.90
7530;DHT22;3806;52.270;10.544;2024-02-26T02:16:53;3.60;99.90
7530;DHT22;3806;52.270;10.544;2024-02-26T02:19:18;3.60;99.90
7530;DHT22;3806;52.270;10.544;2024-02-26T02:21:44;3.60;99.90
7530;DHT22;3806;52.270;10.544;2024-02-26T02:24:09;3.50;99.90
7530;DHT22;3806;52.270;10.544;2024-02-26T02:26:35;3.50;99.90
7530;DHT22;3806;52.270;10.544;2024-02-26T02:29:01;3.60;99.90
7530;DHT22;3806;52.270;10.544;2024-02-26T02:31:27;3.60;99.90
7530;DHT22;3806;52.270;10.544;2024-02-26T02:33:53;3.60;99.90
7530;DHT22;3806;52.270;10.544;2024-02-26T02:36:18;3.60;99.90
7530;DHT22;3806;52.270;10.544;2024-02-26T02:38:51;3.50;99.90
7530;DHT22;3806;52.270;10.544;2024-02-26T02:41:18;3.50;99.90
7530;DHT22;3806;52.270;10.544;2024-02-26T02:43:44;3.50;99.90
7530;DHT22;3806;52.270;10.544;2024-02-26T02:46:10;3.50;99.90
7530;DHT22;3806;52.270;10.544;2024-02-26T02:48:37;3.50;99.90
7530;DHT22;3806;52.270;10.544;2024-02-26T02:51:03;3.50;99.90
7530;DHT22;3806;52.270;10.544;2024-02-26T02:53:28;3.50;99.90
7530;DHT22;3806;52.270;10.544;2024-02-26T02:55:54;3.60;99.90
7530;DHT22;3806;52.270;10.544;2024-02-26T02:58:19;3.50;99.90
7530;DHT22;3806;52.270;10.544;2024-02-26T03:00:45;3.50;99.90
7530;DHT22;3806;52.270;10.544;2024-02-26T03:03:10;3.50;99.90
7530;DHT22;3806;52.270;10.544;2024-02-26T03:05:36;3.40;99.90
7530;DHT22;3806;52.270;10.544;2024-02-26T03:08:01;3.40;99.90
7530;DHT22;3806;52.270;10.544;2024-02-26T03:10:27;3.40;99.90
7530;DHT22;3806;52.270;10.544;2024-02-26T03:12:53;3.40;99.90
7530;DHT22;3806;52.270;10.544;2024-02-26T03:15:19;3.40;99.90
7530;DHT22;3806;52.270;10.544;2024-02-26T03:17:44;3.40;99.90
7530;DHT22;3806;52.270;10.544;2024-02-26T03:20:10;3.40;99.90
7530;DHT22;3806;52.270;10.544;2024-02-26T03:22:35;3.40;99.90
7530;DHT22;3806;52.270;10.544;2024-02-26T03:25:01;3.40;99.90
7530;DHT22;3806;52.270;10.544;2024-02-26T03:27:27;3.40;99.90
7530;DHT22;3806;52.270;10.544;2024-02-26T03:29:52;3.40;99.90
7530;DHT22;3806;52.270;10.544;2024-02-26T03:32:18;3.40;99.90
7530;DHT22;3806;52.270;10.544;2024-02-26T03:34:43;3.30;99.90
7530;DHT22;3806;52.270;10.544;2024-02-26T03:37:09;3.30;99.90
7530;DHT22;3806;52.270;10.544;2024-02-26T03:39:36;3.30;99.90
7530;DHT22;3806;52.270;10.544;2024-02-26T03:42:02;3.30;99.90
7530;DHT22;3806;52.270;10.544;2024-02-26T03:44:27;3.30;99.90
7530;DHT22;3806;52.270;10.544;2024-02-26T03:46:53;3.20;99.90
7530;DHT22;3806;52.270;10.544;2024-02-26T03:49:18;3.20;99.90
7530;DHT22;3806;52.270;10.544;2024-02-26T03:51:44;3.20;99.90
7530;DHT22;3806;52.270;10.544;2024-02-26T03:54:10;3.20;99.90
7530;DHT22;3806;52.270;10.544;2024-02-26T03:56:35;3.20;99.90
7530;DHT22;3806;52.270;10.544;2024-02-26T03:59:00;3.20;99.90
7530;DHT22;3806;52.270;10.544;2024-02-26T04:01:27;3.20;99.90
7530;DHT22;3806;52.270;10.544;2024-02-26T04:03:54;3.20;99.90
7530;DHT22;3806;52.270;10.544;2024-02-26T04:06:20;3.20;99.90
7530;DHT22;3806;52.270;10.544;2024-02-26T04:08:46;3.20;99.90
7530;DHT22;3806;52.270;10.544;2024-02-26T04:11:12;3.10;99.90
7530;DHT22;3806;52.270;10.544;2024-02-26T04:13:38;3.10;99.90
7530;DHT22;3806;52.270;10.544;2024-02-26T04:16:04;3.20;99.90
7530;DHT22;3806;52.270;10.544;2024-02-26T04:18:31;3.20;99.90
7530;DHT22;3806;52.270;10.544;2024-02-26T04:20:56;3.10;99.90
7530;DHT22;3806;52.270;10.544;2024-02-26T04:23:22;3.10;99.90
7530;DHT22;3806;52.270;10.544;2024-02-26T04:25:47;3.10;99.90
7530;DHT22;3806;52.270;10.544;2024-02-26T04:28:13;3.20;99.90
7530;DHT22;3806;52.270;10.544;2024-02-26T04:30:39;3.20;99.90
7530;DHT22;3806;52.270;10.544;2024-02-26T04:33:04;3.20;99.90
7530;DHT22;3806;52.270;10.544;2024-02-26T04:35:30;3.20;99.90
7530;DHT22;3806;52.270;10.544;2024-02-26T04:37:56;3.20;99.90
7530;DHT22;3806;52.270;10.544;2024-02-26T04:40:21;3.30;99.90
7530;DHT22;3806;52.270;10.544;2024-02-26T04:42:47;3.30;99.90
7530;DHT22;3806;52.270;10.544;2024-02-26T04:45:12;3.30;99.90
7530;DHT22;3806;52.270;10.544;2024-02-26T04:47:38;3.40;99.90
7530;DHT22;3806;52.270;10.544;2024-02-26T04:50:04;3.40;99.90
7530;DHT22;3806;52.270;10.544;2024-02-26T04:52:29;3.40;99.90
7530;DHT22;3806;52.270;10.544;2024-02-26T04:54:55;3.40;99.90
7530;DHT22;3806;52.270;10.544;2024-02-26T04:57:21;3.50;99.90
7530;DHT22;3806;52.270;10.544;2024-02-26T04:59:47;3.50;99.90
7530;DHT22;3806;52.270;10.544;2024-02-26T05:02:12;3.50;99.90
7530;DHT22;3806;52.270;10.544;2024-02-26T05:04:38;3.50;99.90
7530;DHT22;3806;52.270;10.544;2024-02-26T05:07:04;3.60;99.90
7530;DHT22;3806;52.270;10.544;2024-02-26T05:09:29;3.60;99.90
7530;DHT22;3806;52.270;10.544;2024-02-26T05:11:55;3.60;99.90
7530;DHT22;3806;52.270;10.544;2024-02-26T05:14:20;3.60;99.90
7530;DHT22;3806;52.270;10.544;2024-02-26T05:16:47;3.60;99.90
7530;DHT22;3806;52.270;10.544;2024-02-26T05:19:12;3.70;99.90
7530;DHT22;3806;52.270;10.544;2024-02-26T05:21:38;3.70;99.90
7530;DHT22;3806;52.270;10.544;2024-02-26T05:24:04;3.70;99.90
7530;DHT22;3806;52.270;10.544;2024-02-26T05:26:29;3.60;99.90
7530;DHT22;3806;52.270;10.544;2024-02-26T05:28:55;3.60;99.90
7530;DHT22;3806;52.270;10.544;2024-02-26T05:31:25;3.60;99.90
7530;DHT22;3806;52.270;10.544;2024-02-26T05:33:50;3.60;99.90
7530;DHT22;3806;52.270;10.544;2024-02-26T05:36:20;3.60;99.90
7530;DHT22;3806;52.270;10.544;2024-02-26T05:38:47;3.60;99.90
7530;DHT22;3806;52.270;10.544;2024-02-26T05:41:15;3.70;99.90
7530;DHT22;3806;52.270;10.544;2024-02-26T05:43:41;3.70;99.90
7530;DHT22;3806;52.270;10.544;2024-02-26T05:46:06;3.80;99.90
7530;DHT22;3806;52.270;10.544;2024-02-26T05:48:31;3.80;99.90
7530;DHT22;3806;52.270;10.544;2024-02-26T05:50:57;3.80;99.90
7530;DHT22;3806;52.270;10.544;2024-02-26T05:53:23;3.80;99.90
7530;DHT22;3806;52.270;10.544;2024-02-26T05:55:48;3.80;99.90
7530;DHT22;3806;52.270;10.544;2024-02-26T05:58:13;3.80;99.90
7530;DHT22;3806;52.270;10.544;2024-02-26T06:00:39;3.90;99.90
7530;DHT22;3806;52.270;10.544;2024-02-26T06:03:05;3.90;99.90
7530;DHT22;3806;52.270;10.544;2024-02-26T06:05:31;3.90;99.90
7530;DHT22;3806;52.270;10.544;2024-02-26T06:07:56;4.00;99.90
7530;DHT22;3806;52.270;10.544;2024-02-26T06:10:22;4.00;99.90
7530;DHT22;3806;52.270;10.544;2024-02-26T06:12:47;4.00;99.90
7530;DHT22;3806;52.270;10.544;2024-02-26T06:15:13;4.00;99.90
7530;DHT22;3806;52.270;10.544;2024-02-26T06:17:39;4.10;99.90
7530;DHT22;3806;52.270;10.544;2024-02-26T06:20:05;4.10;99.90
7530;DHT22;3806;52.270;10.544;2024-02-26T06:22:32;4.10;99.90
7530;DHT22;3806;52.270;10.544;2024-02-26T06:24:57;4.10;99.90
7530;DHT22;3806;52.270;10.544;2024-02-26T06:27:23;4.10;99.90
7530;DHT22;3806;52.270;10.544;2024-02-26T06:29:49;4.20;99.90
7530;DHT22;3806;52.270;10.544;2024-02-26T06:32:15;4.20;99.90
7530;DHT22;3806;52.270;10.544;2024-02-26T06:34:40;4.20;99.90
7530;DHT22;3806;52.270;10.544;2024-02-26T06:37:07;4.20;99.90
7530;DHT22;3806;52.270;10.544;2024-02-26T06:39:33;4.20;99.90
7530;DHT22;3806;52.270;10.544;2024-02-26T06:41:58;4.30;99.90
7530;DHT22;3806;52.270;10.544;2024-02-26T06:44:27;4.30;99.90
7530;DHT22;3806;52.270;10.544;2024-02-26T06:47:00;4.30;99.90
7530;DHT22;3806;52.270;10.544;2024-02-26T06:49:26;4.30;99.90
7530;DHT22;3806;52.270;10.544;2024-02-26T06:51:52;4.40;99.90
7530;DHT22;3806;52.270;10.544;2024-02-26T06:54:17;4.40;99.90
7530;DHT22;3806;52.270;10.544;2024-02-26T06:56:43;4.50;99.90
7530;DHT22;3806;52.270;10.544;2024-02-26T06:59:08;4.50;99.90
7530;DHT22;3806;52.270;10.544;2024-02-26T07:01:34;4.60;99.90
7530;DHT22;3806;52.270;10.544;2024-02-26T07:03:59;4.60;99.90
7530;DHT22;3806;52.270;10.544;2024-02-26T07:06:26;4.60;99.90
7530;DHT22;3806;52.270;10.544;2024-02-26T07:08:52;4.60;99.90
7530;DHT22;3806;52.270;10.544;2024-02-26T07:11:17;4.70;99.90
7530;DHT22;3806;52.270;10.544;2024-02-26T07:13:45;4.60;99.90
7530;DHT22;3806;52.270;10.544;2024-02-26T07:16:11;4.70;99.90
7530;DHT22;3806;52.270;10.544;2024-02-26T07:18:36;4.70;99.90
7530;DHT22;3806;52.270;10.544;2024-02-26T07:21:02;4.80;99.90
7530;DHT22;3806;52.270;10.544;2024-02-26T07:23:29;4.80;99.90
7530;DHT22;3806;52.270;10.544;2024-02-26T07:25:54;4.90;99.90
7530;DHT22;3806;52.270;10.544;2024-02-26T07:28:20;5.00;99.90
7530;DHT22;3806;52.270;10.544;2024-02-26T07:30:45;5.10;99.90
7530;DHT22;3806;52.270;10.544;2024-02-26T07:33:11;5.20;99.90
7530;DHT22;3806;52.270;10.544;2024-02-26T07:35:36;5.20;99.90
7530;DHT22;3806;52.270;10.544;2024-02-26T07:38:07;5.40;99.90
7530;DHT22;3806;52.270;10.544;2024-02-26T07:40:32;5.40;99.90
7530;DHT22;3806;52.270;10.544;2024-02-26T07:42:58;5.50;99.90
7530;DHT22;3806;52.270;10.544;2024-02-26T07:45:23;5.50;99.90
7530;DHT22;3806;52.270;10.544;2024-02-26T07:47:49;5.60;99.90
7530;DHT22;3806;52.270;10.544;2024-02-26T07:50:16;5.70;99.90
7530;DHT22;3806;52.270;10.544;2024-02-26T07:52:42;5.70;99.90
7530;DHT22;3806;52.270;10.544;2024-02-26T07:55:07;5.80;99.90
7530;DHT22;3806;52.270;10.544;2024-02-26T07:57:33;5.90;99.90
7530;DHT22;3806;52.270;10.544;2024-02-26T08:00:03;5.90;99.90
7530;DHT22;3806;52.270;10.544;2024-02-26T08:02:28;5.90;99.90
7530;DHT22;3806;52.270;10.544;2024-02-26T08:04:54;6.00;99.90
7530;DHT22;3806;52.270;10.544;2024-02-26T08:07:19;6.00;99.90
7530;DHT22;3806;52.270;10.544;2024-02-26T08:09:46;6.10;99.90
7530;DHT22;3806;52.270;10.544;2024-02-26T08:12:12;6.10;99.90
7530;DHT22;3806;52.270;10.544;2024-02-26T08:14:37;6.10;99.90
7530;DHT22;3806;52.270;10.544;2024-02-26T08:17:03;6.10;99.90
7530;DHT22;3806;52.270;10.544;2024-02-26T08:19:28;6.10;99.90
7530;DHT22;3806;52.270;10.544;2024-02-26T08:21:54;6.20;99.90
7530;DHT22;3806;52.270;10.544;2024-02-26T08:24:20;6.30;99.90
7530;DHT22;3806;52.270;10.544;2024-02-26T08:26:45;6.30;99.90
7530;DHT22;3806;52.270;10.544;2024-02-26T08:29:11;6.40;99.90
7530;DHT22;3806;52.270;10.544;2024-02-26T08:31:36;6.40;99.90
7530;DHT22;3806;52.270;10.544;2024-02-26T08:34:03;6.50;99.90
7530;DHT22;3806;52.270;10.544;2024-02-26T08:36:29;6.50;99.90
7530;DHT22;3806;52.270;10.544;2024-02-26T08:38:55;6.60;99.90
7530;DHT22;3806;52.270;10.544;2024-02-26T08:41:20;6.60;99.90
7530;DHT22;3806;52.270;10.544;2024-02-26T08:43:46;6.70;99.90
7530;DHT22;3806;52.270;10.544;2024-02-26T08:46:12;6.80;99.90
7530;DHT22;3806;52.270;10.544;2024-02-26T08:48:39;6.90;99.90
7530;DHT22;3806;52.270;10.544;2024-02-26T08:51:08;7.00;99.90
7530;DHT22;3806;52.270;10.544;2024-02-26T08:53:34;7.00;99.90
7530;DHT22;3806;52.270;10.544;2024-02-26T08:55:59;7.10;99.90
7530;DHT22;3806;52.270;10.544;2024-02-26T08:58:26;7.10;99.90
7530;DHT22;3806;52.270;10.544;2024-02-26T09:00:52;7.20;99.90
7530;DHT22;3806;52.270;10.544;2024-02-26T09:03:17;7.20;99.90
7530;DHT22;3806;52.270;10.544;2024-02-26T09:05:43;7.30;99.90
7530;DHT22;3806;52.270;10.544;2024-02-26T09:08:08;7.30;99.90
7530;DHT22;3806;52.270;10.544;2024-02-26T09:10:34;7.30;99.90
7530;DHT22;3806;52.270;10.544;2024-02-26T09:12:59;7.40;99.90
7530;DHT22;3806;52.270;10.544;2024-02-26T09:15:25;7.50;99.90
7530;DHT22;3806;52.270;10.544;2024-02-26T09:17:50;7.60;99.90
7530;DHT22;3806;52.270;10.544;2024-02-26T09:20:17;7.60;99.90
7530;DHT22;3806;52.270;10.544;2024-02-26T09:22:46;7.60;99.60
7530;DHT22;3806;52.270;10.544;2024-02-26T09:25:12;7.70;99.60
7530;DHT22;3806;52.270;10.544;2024-02-26T09:27:37;7.70;99.50
7530;DHT22;3806;52.270;10.544;2024-02-26T09:30:03;7.80;99.50
7530;DHT22;3806;52.270;10.544;2024-02-26T09:32:28;7.80;99.20
7530;DHT22;3806;52.270;10.544;2024-02-26T09:34:54;7.80;99.10
7530;DHT22;3806;52.270;10.544;2024-02-26T09:37:19;7.90;99.20
7530;DHT22;3806;52.270;10.544;2024-02-26T09:39:45;8.00;99.20
7530;DHT22;3806;52.270;10.544;2024-02-26T09:42:13;8.00;99.20
7530;DHT22;3806;52.270;10.544;2024-02-26T09:44:40;8.10;99.30
7530;DHT22;3806;52.270;10.544;2024-02-26T09:47:09;8.10;99.30
7530;DHT22;3806;52.270;10.544;2024-02-26T09:49:35;8.20;99.30
7530;DHT22;3806;52.270;10.544;2024-02-26T09:52:01;8.30;99.10
7530;DHT22;3806;52.270;10.544;2024-02-26T09:54:28;8.40;99.10
7530;DHT22;3806;52.270;10.544;2024-02-26T09:57:02;8.50;99.00
7530;DHT22;3806;52.270;10.544;2024-02-26T09:59:38;8.60;99.00
7530;DHT22;3806;52.270;10.544;2024-02-26T10:02:15;8.60;98.70
7530;DHT22;3806;52.270;10.544;2024-02-26T10:04:43;8.60;98.90
7530;DHT22;3806;52.270;10.544;2024-02-26T10:07:11;8.60;98.70
7530;DHT22;3806;52.270;10.544;2024-02-26T10:09:37;8.50;98.70
7530;DHT22;3806;52.270;10.544;2024-02-26T10:12:03;8.50;98.90
7530;DHT22;3806;52.270;10.544;2024-02-26T10:14:30;8.50;99.00
7530;DHT22;3806;52.270;10.544;2024-02-26T10:16:56;8.50;98.90
7530;DHT22;3806;52.270;10.544;2024-02-26T10:19:26;8.50;99.10
7530;DHT22;3806;52.270;10.544;2024-02-26T10:21:58;8.40;99.10
7530;DHT22;3806;52.270;10.544;2024-02-26T10:24:25;8.40;99.20
7530;DHT22;3806;52.270;10.544;2024-02-26T10:26:51;8.40;99.20
7530;DHT22;3806;52.270;10.544;2024-02-26T10:29:18;8.50;99.30
7530;DHT22;3806;52.270;10.544;2024-02-26T10:31:44;8.50;99.40
7530;DHT22;3806;52.270;10.544;2024-02-26T10:34:10;8.40;99.40
7530;DHT22;3806;52.270;10.544;2024-02-26T10:36:36;8.40;99.40
7530;DHT22;3806;52.270;10.544;2024-02-26T10:39:03;8.40;99.50
7530;DHT22;3806;52.270;10.544;2024-02-26T10:41:29;8.30;99.70
7530;DHT22;3806;52.270;10.544;2024-02-26T10:43:55;8.30;99.90
7530;DHT22;3806;52.270;10.544;2024-02-26T10:46:20;8.30;99.90
7530;DHT22;3806;52.270;10.544;2024-02-26T10:48:53;8.30;99.90
7530;DHT22;3806;52.270;10.544;2024-02-26T10:51:27;8.20;99.90
7530;DHT22;3806;52.270;10.544;2024-02-26T10:53:56;8.20;99.90
7530;DHT22;3806;52.270;10.544;2024-02-26T10:56:29;8.20;99.90
7530;DHT22;3806;52.270;10.544;2024-02-26T10:58:59;8.30;99.90
7530;DHT22;3806;52.270;10.544;2024-02-26T11:01:25;8.40;99.90
7530;DHT22;3806;52.270;10.544;2024-02-26T11:03:52;8.30;99.90
7530;DHT22;3806;52.270;10.544;2024-02-26T11:06:26;8.30;99.90
7530;DHT22;3806;52.270;10.544;2024-02-26T11:08:51;8.40;99.90
7530;DHT22;3806;52.270;10.544;2024-02-26T11:11:18;8.40;99.90
7530;DHT22;3806;52.270;10.544;2024-02-26T11:13:47;8.50;99.90
7530;DHT22;3806;52.270;10.544;2024-02-26T11:16:21;8.50;99.90
7530;DHT22;3806;52.270;10.544;2024-02-26T11:18:48;8.60;99.90
7530;DHT22;3806;52.270;10.544;2024-02-26T11:21:16;8.70;99.90
7530;DHT22;3806;52.270;10.544;2024-02-26T11:23:44;8.70;99.90
7530;DHT22;3806;52.270;10.544;2024-02-26T11:26:10;8.80;99.90
7530;DHT22;3806;52.270;10.544;2024-02-26T11:28:37;8.80;99.90
7530;DHT22;3806;52.270;10.544;2024-02-26T11:31:04;8.80;99.90
7530;DHT22;3806;52.270;10.544;2024-02-26T11:33:30;8.90;99.90
7530;DHT22;3806;52.270;10.544;2024-02-26T11:35:56;8.90;99.90
7530;DHT22;3806;52.270;10.544;2024-02-26T11:38:24;8.90;99.70
7530;DHT22;3806;52.270;10.544;2024-02-26T11:40:51;9.00;99.80
7530;DHT22;3806;52.270;10.544;2024-02-26T11:43:18;9.00;99.70
7530;DHT22;3806;52.270;10.544;2024-02-26T11:48:19;9.10;99.80
7530;DHT22;3806;52.270;10.544;2024-02-26T11:50:51;9.10;99.70
7530;DHT22;3806;52.270;10.544;2024-02-26T11:53:26;9.10;99.60
7530;DHT22;3806;52.270;10.544;2024-02-26T11:58:42;9.20;99.80
7530;DHT22;3806;52.270;10.544;2024-02-26T12:01:39;9.20;99.80
7530;DHT22;3806;52.270;10.544;2024-02-26T12:04:11;9.20;99.90
7530;DHT22;3806;52.270;10.544;2024-02-26T12:06:45;9.20;99.90
7530;DHT22;3806;52.270;10.544;2024-02-26T12:09:11;9.20;99.90
7530;DHT22;3806;52.270;10.544;2024-02-26T12:11:39;9.20;99.90
7530;DHT22;3806;52.270;10.544;2024-02-26T12:14:07;9.30;99.90
7530;DHT22;3806;52.270;10.544;2024-02-26T12:16:39;9.30;99.90
7530;DHT22;3806;52.270;10.544;2024-02-26T12:19:09;9.40;99.90
7530;DHT22;3806;52.270;10.544;2024-02-26T12:21:37;9.40;99.90
7530;DHT22;3806;52.270;10.544;2024-02-26T12:24:14;9.50;99.90
7530;DHT22;3806;52.270;10.544;2024-02-26T12:26:40;9.40;99.90
7530;DHT22;3806;52.270;10.544;2024-02-26T12:29:07;9.50;99.90
7530;DHT22;3806;52.270;10.544;2024-02-26T12:31:33;9.40;99.90
7530;DHT22;3806;52.270;10.544;2024-02-26T12:33:59;9.40;99.90
7530;DHT22;3806;52.270;10.544;2024-02-26T12:36:25;9.40;99.90
7530;DHT22;3806;52.270;10.544;2024-02-26T12:38:51;9.30;99.90
7530;DHT22;3806;52.270;10.544;2024-02-26T12:41:17;9.40;99.90
7530;DHT22;3806;52.270;10.544;2024-02-26T12:43:43;9.40;99.90
7530;DHT22;3806;52.270;10.544;2024-02-26T12:46:08;9.50;99.90
7530;DHT22;3806;52.270;10.544;2024-02-26T12:48:34;9.50;99.90
7530;DHT22;3806;52.270;10.544;2024-02-26T12:51:00;9.60;99.90
7530;DHT22;3806;52.270;10.544;2024-02-26T12:53:26;9.70;99.90
7530;DHT22;3806;52.270;10.544;2024-02-26T12:55:54;9.70;99.90
7530;DHT22;3806;52.270;10.544;2024-02-26T12:58:20;9.70;99.90
7530;DHT22;3806;52.270;10.544;2024-02-26T13:00:52;9.70;99.90
7530;DHT22;3806;52.270;10.544;2024-02-26T13:03:18;9.70;99.90
7530;DHT22;3806;52.270;10.544;2024-02-26T13:05:45;9.70;99.90
7530;DHT22;3806;52.270;10.544;2024-02-26T13:08:17;9.70;99.90
7530;DHT22;3806;52.270;10.544;2024-02-26T13:10:43;9.70;99.90
7530;DHT22;3806;52.270;10.544;2024-02-26T13:13:10;9.70;99.90
7530;DHT22;3806;52.270;10.544;2024-02-26T13:15:36;9.70;99.90
7530;DHT22;3806;52.270;10.544;2024-02-26T13:18:09;9.70;99.90
7530;DHT22;3806;52.270;10.544;2024-02-26T13:20:35;9.70;99.90
7530;DHT22;3806;52.270;10.544;2024-02-26T13:23:06;9.70;99.90
7530;DHT22;3806;52.270;10.544;2024-02-26T13:25:32;9.80;99.90
7530;DHT22;3806;52.270;10.544;2024-02-26T13:28:27;9.80;99.90
7530;DHT22;3806;52.270;10.544;2024-02-26T13:30:57;9.80;99.90
7530;DHT22;3806;52.270;10.544;2024-02-26T13:33:24;9.90;99.90
7530;DHT22;3806;52.270;10.544;2024-02-26T13:35:50;10.00;99.70
7530;DHT22;3806;52.270;10.544;2024-02-26T13:38:16;10.00;99.60
7530;DHT22;3806;52.270;10.544;2024-02-26T13:40:42;10.10;99.60
7530;DHT22;3806;52.270;10.544;2024-02-26T13:43:07;10.10;99.40
7530;DHT22;3806;52.270;10.544;2024-02-26T13:45:37;10.20;99.30
7530;DHT22;3806;52.270;10.544;2024-02-26T13:48:04;10.20;99.10
7530;DHT22;3806;52.270;10.544;2024-02-26T13:50:30;10.20;99.00
7530;DHT22;3806;52.270;10.544;2024-02-26T13:52:56;10.20;99.00
7530;DHT22;3806;52.270;10.544;2024-02-26T13:55:23;10.10;99.10
7530;DHT22;3806;52.270;10.544;2024-02-26T13:57:51;10.10;99.20
7530;DHT22;3806;52.270;10.544;2024-02-26T14:00:19;10.10;99.30
7530;DHT22;3806;52.270;10.544;2024-02-26T14:02:44;10.10;99.40
7530;DHT22;3806;52.270;10.544;2024-02-26T14:05:10;10.10;99.40
7530;DHT22;3806;52.270;10.544;2024-02-26T14:07:36;10.20;99.30
7530;DHT22;3806;52.270;10.544;2024-02-26T14:10:01;10.10;99.30
7530;DHT22;3806;52.270;10.544;2024-02-26T14:12:27;10.10;99.30
7530;DHT22;3806;52.270;10.544;2024-02-26T14:14:53;10.10;99.40
7530;DHT22;3806;52.270;10.544;2024-02-26T14:17:21;10.10;99.40
7530;DHT22;3806;52.270;10.544;2024-02-26T14:19:46;10.00;99.50
7530;DHT22;3806;52.270;10.544;2024-02-26T14:22:14;10.00;99.60
7530;DHT22;3806;52.270;10.544;2024-02-26T14:24:40;9.90;99.90
7530;DHT22;3806;52.270;10.544;2024-02-26T14:27:08;9.90;99.90
7530;DHT22;3806;52.270;10.544;2024-02-26T14:29:34;9.80;99.90
7530;DHT22;3806;52.270;10.544;2024-02-26T14:32:00;9.80;99.90
7530;DHT22;3806;52.270;10.544;2024-02-26T14:34:26;9.80;99.90
7530;DHT22;3806;52.270;10.544;2024-02-26T14:36:52;9.80;99.90
7530;DHT22;3806;52.270;10.544;2024-02-26T14:39:17;9.80;99.90
7530;DHT22;3806;52.270;10.544;2024-02-26T14:41:43;9.80;99.90
7530;DHT22;3806;52.270;10.544;2024-02-26T14:44:08;9.80;99.90
7530;DHT22;3806;52.270;10.544;2024-02-26T14:46:34;9.70;99.90
7530;DHT22;3806;52.270;10.544;2024-02-26T14:48:59;9.70;99.90
7530;DHT22;3806;52.270;10.544;2024-02-26T14:51:25;9.60;99.90
7530;DHT22;3806;52.270;10.544;2024-02-26T14:53:50;9.60;99.90
7530;DHT22;3806;52.270;10.544;2024-02-26T14:56:16;9.50;99.90
7530;DHT22;3806;52.270;10.544;2024-02-26T14:58:41;9.50;99.90
7530;DHT22;3806;52.270;10.544;2024-02-26T15:01:07;9.50;99.90
7530;DHT22;3806;52.270;10.544;2024-02-26T15:03:33;9.50;99.90
7530;DHT22;3806;52.270;10.544;2024-02-26T15:05:58;9.50;99.90
7530;DHT22;3806;52.270;10.544;2024-02-26T15:08:24;9.40;99.90
7530;DHT22;3806;52.270;10.544;2024-02-26T15:10:49;9.40;99.90
7530;DHT22;3806;52.270;10.544;2024-02-26T15:13:15;9.30;99.90
7530;DHT22;3806;52.270;10.544;2024-02-26T15:15:41;9.30;99.90
7530;DHT22;3806;52.270;10.544;2024-02-26T15:18:07;9.20;99.90
7530;DHT22;3806;52.270;10.544;2024-02-26T15:20:34;9.20;99.90
7530;DHT22;3806;52.270;10.544;2024-02-26T15:23:00;9.20;99.90
7530;DHT22;3806;52.270;10.544;2024-02-26T15:25:25;9.20;99.90
7530;DHT22;3806;52.270;10.544;2024-02-26T15:27:54;9.20;99.90
7530;DHT22;3806;52.270;10.544;2024-02-26T15:30:19;9.20;99.90
7530;DHT22;3806;52.270;10.544;2024-02-26T15:32:45;9.20;99.90
7530;DHT22;3806;52.270;10.544;2024-02-26T15:35:11;9.20;99.90
7530;DHT22;3806;52.270;10.544;2024-02-26T15:37:36;9.20;99.90
7530;DHT22;3806;52.270;10.544;2024-02-26T15:40:02;9.20;99.90
7530;DHT22;3806;52.270;10.544;2024-02-26T15:42:28;9.20;99.90
7530;DHT22;3806;52.270;10.544;2024-02-26T15:44:54;9.20;99.90
7530;DHT22;3806;52.270;10.544;2024-02-26T15:47:19;9.20;99.90
7530;DHT22;3806;52.270;10.544;2024-02-26T15:49:45;9.30;99.90
7530;DHT22;3806;52.270;10.544;2024-02-26T15:52:10;9.30;99.90
7530;DHT22;3806;52.270;10.544;2024-02-26T15:54:39;9.30;99.90
7530;DHT22;3806;52.270;10.544;2024-02-26T15:57:06;9.30;99.90
7530;DHT22;3806;52.270;10.544;2024-02-26T15:59:31;9.30;99.90